EGAA Airport Information

Runway Information
Runway 07 Length 9121 ft width 148 ft
Elevation 206 ft Threshold 0 ft Heading 65
Runway 25 Length 9121 ft Width 148 ft
Elevation 268 ft Threshold 0 ft Heading 245
Runway 17 Length 6401 ft width 148 ft
Elevation 206 ft Threshold 525 ft Heading 162
Runway 35 Length 6401 ft Width 148 ft
Elevation 258 ft Threshold 502 ft Heading 342
Airport Frequencies
Type APP Name APP Frequency 128.5 MHZ
Type ATIS Name ATIS Frequency 128.2 MHZ
Type GND Name GND Frequency 121.75 MHZ
Type ILS 17 Name Frequency 110.9 MHZ
Type ILS 25 Name Frequency 109.9 MHZ
Type OPS Name OPS Frequency 26.48 MHZ
Type RDR Name DIRECTOR Frequency 120.9 MHZ
Type TWR Name TWR Frequency 118.3 MHZ
Airport Navaids
Type VOR-DME Name Belfast Frequency 117200 KHZ
Type NDB Name Aldergrove Frequency 332 KHZ
Airport Weather Information & NOTAM
ADDS - METARS form results

(1309 UTC 22 June 2018)
 
METAR text: EGAA 221250Z 32008KT 240V360 9999 SCT030 16/09 Q1033
Conditions at: EGAA (BELFAST/ALDERGRO, GB) observed 1250 UTC 22 June 2018
Temperature: 16.0°C (61°F)
Dewpoint: 9.0°C (48°F) [RH = 63%]
Pressure (altimeter): 30.50 inches Hg (1033.0 mb)
Winds: from the NW (320 degrees) at 9 MPH (8 knots; 4.2 m/s)
Visibility: 6 or more miles (10+ km)
Ceiling: at least 12,000 feet AGL
Clouds: scattered clouds at 3000 feet AGL
Weather: no significant weather observed at this time

METAR text: EGAA 221220Z 32006KT 270V360 9999 SCT030 16/08 Q1034
Conditions at: EGAA (BELFAST/ALDERGRO, GB) observed 1220 UTC 22 June 2018
Temperature: 16.0°C (61°F)
Dewpoint: 8.0°C (46°F) [RH = 59%]
Pressure (altimeter): 30.53 inches Hg (1034.0 mb)
Winds: from the NW (320 degrees) at 7 MPH (6 knots; 3.1 m/s)
Visibility: 6 or more miles (10+ km)
Ceiling: at least 12,000 feet AGL
Clouds: scattered clouds at 3000 feet AGL
Weather: no significant weather observed at this time